createdAt,value
2018-12-14T00:02:10.094Z,-0.10
2018-12-14T00:04:38.542Z,0.00
2018-12-14T00:07:07.000Z,-0.10
2018-12-14T00:09:35.453Z,-0.10
2018-12-14T00:12:03.919Z,-0.10
2018-12-14T00:14:32.371Z,-0.10
2018-12-14T00:17:00.830Z,-0.10
2018-12-14T00:19:29.288Z,-0.10
2018-12-14T00:21:57.745Z,-0.10
2018-12-14T00:24:26.197Z,-0.20
2018-12-14T00:26:54.674Z,-0.10
2018-12-14T00:29:23.125Z,-0.10
2018-12-14T00:31:51.584Z,-0.20
2018-12-14T00:34:20.030Z,-0.10
2018-12-14T00:36:48.473Z,-0.20
2018-12-14T00:39:16.930Z,-0.20
2018-12-14T00:41:51.749Z,-0.10
2018-12-14T00:44:15.861Z,-0.20
2018-12-14T00:46:45.212Z,-0.20
2018-12-14T00:49:14.238Z,-0.20
2018-12-14T00:51:42.830Z,-0.10
2018-12-14T00:54:11.289Z,-0.20
2018-12-14T00:56:39.745Z,-0.10
2018-12-14T00:59:08.202Z,-0.20
2018-12-14T01:01:36.665Z,-0.10
2018-12-14T01:04:05.126Z,-0.20
2018-12-14T01:06:33.617Z,-0.30
2018-12-14T01:09:02.086Z,-0.20
2018-12-14T01:11:30.568Z,-0.20
2018-12-14T01:13:59.664Z,-0.10
2018-12-14T01:16:28.130Z,-0.20
2018-12-14T01:18:56.587Z,-0.20
2018-12-14T01:21:25.054Z,-0.20
2018-12-14T01:23:53.514Z,-0.20
2018-12-14T01:26:21.981Z,-0.20
2018-12-14T01:28:50.430Z,-0.20
2018-12-14T01:31:18.886Z,-0.20
2018-12-14T01:33:47.322Z,-0.20
2018-12-14T01:36:15.793Z,-0.20
2018-12-14T01:38:44.274Z,-0.20
2018-12-14T01:41:12.730Z,-0.20
2018-12-14T01:43:41.181Z,-0.20
2018-12-14T01:46:09.648Z,-0.20
2018-12-14T01:48:38.118Z,-0.20
2018-12-14T01:51:06.575Z,-0.30
2018-12-14T01:53:35.030Z,-0.30
2018-12-14T01:56:03.541Z,-0.40
2018-12-14T01:58:32.000Z,-0.30
2018-12-14T02:01:00.582Z,-0.30
2018-12-14T02:03:29.042Z,-0.30
2018-12-14T02:05:57.491Z,-0.30
2018-12-14T02:08:25.951Z,-0.30
2018-12-14T02:10:54.427Z,-0.30
2018-12-14T02:13:23.815Z,-0.30
2018-12-14T02:15:52.270Z,-0.30
2018-12-14T02:18:20.718Z,-0.30
2018-12-14T02:20:49.183Z,-0.30
2018-12-14T02:23:17.638Z,-0.20
2018-12-14T02:25:46.102Z,-0.30
2018-12-14T02:28:14.575Z,-0.30
2018-12-14T02:30:45.237Z,-0.30
2018-12-14T02:33:13.834Z,-0.30
2018-12-14T02:35:42.286Z,-0.30
2018-12-14T02:38:10.739Z,-0.30
2018-12-14T02:40:39.190Z,-0.30
2018-12-14T02:43:07.663Z,-0.40
2018-12-14T02:45:36.130Z,-0.30
2018-12-14T02:48:04.604Z,-0.30
2018-12-14T02:50:33.091Z,-0.40
2018-12-14T02:53:01.538Z,-0.40
2018-12-14T02:55:29.989Z,-0.30
2018-12-14T02:57:58.447Z,-0.30
2018-12-14T03:00:26.927Z,-0.30
2018-12-14T03:02:55.373Z,-0.30
2018-12-14T03:05:23.861Z,-0.30
2018-12-14T03:07:52.325Z,-0.40
2018-12-14T03:10:20.783Z,-0.30
2018-12-14T03:12:49.230Z,-0.30
2018-12-14T03:15:17.679Z,-0.30
2018-12-14T03:17:46.128Z,-0.40
2018-12-14T03:20:14.610Z,-0.40
2018-12-14T03:22:43.057Z,-0.40
2018-12-14T03:25:11.539Z,-0.30
2018-12-14T03:27:39.989Z,-0.30
2018-12-14T03:30:09.721Z,-0.40
2018-12-14T03:32:38.294Z,-0.30
2018-12-14T03:35:06.738Z,-0.40
2018-12-14T03:37:35.178Z,-0.40
2018-12-14T03:40:04.291Z,-0.40
2018-12-14T03:42:34.678Z,-0.40
2018-12-14T03:45:03.256Z,-0.40
2018-12-14T03:47:31.714Z,-0.30
2018-12-14T03:50:00.170Z,-0.40
2018-12-14T03:52:28.626Z,-0.40
2018-12-14T03:54:57.091Z,-0.30
2018-12-14T03:57:25.554Z,-0.40
2018-12-14T03:59:54.010Z,-0.40
2018-12-14T04:02:22.476Z,-0.50
2018-12-14T04:04:50.930Z,-0.40
2018-12-14T04:07:19.374Z,-0.30
2018-12-14T04:09:47.831Z,-0.40
2018-12-14T04:12:16.286Z,-0.40
2018-12-14T04:14:44.738Z,-0.40
2018-12-14T04:17:13.194Z,-0.40
2018-12-14T04:19:41.660Z,-0.40
2018-12-14T04:22:10.331Z,-0.30
2018-12-14T04:24:38.797Z,-0.40
2018-12-14T04:27:07.260Z,-0.40
2018-12-14T04:29:35.770Z,-0.40
2018-12-14T04:32:04.246Z,-0.40
2018-12-14T04:34:32.685Z,-0.40
2018-12-14T04:37:01.966Z,-0.50
2018-12-14T04:39:31.259Z,-0.40
2018-12-14T04:42:00.283Z,-0.50
2018-12-14T04:44:28.734Z,-0.50
2018-12-14T04:46:57.942Z,-0.50
2018-12-14T04:49:26.433Z,-0.50
2018-12-14T04:51:54.891Z,-0.50
2018-12-14T04:54:23.334Z,-0.40
2018-12-14T04:56:51.820Z,-0.40
2018-12-14T04:59:20.405Z,-0.40
2018-12-14T05:01:48.873Z,-0.40
2018-12-14T05:04:17.322Z,-0.50
2018-12-14T05:06:45.794Z,-0.50
2018-12-14T05:09:14.241Z,-0.50
2018-12-14T05:11:42.687Z,-0.50
2018-12-14T05:14:11.138Z,-0.50
2018-12-14T05:16:39.590Z,-0.50
2018-12-14T05:19:08.038Z,-0.40
2018-12-14T05:21:36.637Z,-0.40
2018-12-14T05:24:05.099Z,-0.50
2018-12-14T05:26:33.561Z,-0.50
2018-12-14T05:29:02.014Z,-0.40
2018-12-14T05:31:30.489Z,-0.40
2018-12-14T05:33:58.946Z,-0.40
2018-12-14T05:36:27.418Z,-0.50
2018-12-14T05:38:55.930Z,-0.50
2018-12-14T05:41:24.385Z,-0.40
2018-12-14T05:43:52.845Z,-0.40
2018-12-14T05:46:21.302Z,-0.30
2018-12-14T05:48:49.745Z,-0.40
2018-12-14T05:51:18.220Z,-0.40
2018-12-14T05:53:46.691Z,-0.40
2018-12-14T05:56:15.149Z,-0.40
2018-12-14T05:58:43.606Z,-0.40
2018-12-14T06:01:12.064Z,-0.40
2018-12-14T06:03:40.513Z,-0.40
2018-12-14T06:06:09.110Z,-0.30
2018-12-14T06:08:37.557Z,-0.40
2018-12-14T06:11:06.157Z,-0.40
2018-12-14T06:13:34.611Z,-0.50
2018-12-14T06:16:03.085Z,-0.50
2018-12-14T06:18:31.562Z,-0.50
2018-12-14T06:21:00.024Z,-0.50
2018-12-14T06:23:28.484Z,-0.50
2018-12-14T06:25:56.935Z,-0.60
2018-12-14T06:28:26.042Z,-0.60
2018-12-14T06:30:54.682Z,-0.60
2018-12-14T06:33:23.139Z,-0.60
2018-12-14T06:35:51.608Z,-0.60
2018-12-14T06:38:20.070Z,-0.60
2018-12-14T06:40:48.530Z,-0.60
2018-12-14T06:43:16.987Z,-0.60
2018-12-14T06:45:45.442Z,-0.60
2018-12-14T06:48:13.914Z,-0.60
2018-12-14T06:50:42.370Z,-0.60
2018-12-14T06:53:10.895Z,-0.60
2018-12-14T06:55:39.359Z,-0.60
2018-12-14T06:58:07.862Z,-0.60
2018-12-14T07:00:36.402Z,-0.70
2018-12-14T07:03:04.861Z,-0.70
2018-12-14T07:05:33.330Z,-0.60
2018-12-14T07:08:01.781Z,-0.70
2018-12-14T07:10:30.241Z,-0.70
2018-12-14T07:12:58.713Z,-0.70
2018-12-14T07:15:27.159Z,-0.70
2018-12-14T07:17:55.622Z,-0.70
2018-12-14T07:20:24.106Z,-0.60
2018-12-14T07:22:52.563Z,-0.70
2018-12-14T07:25:21.017Z,-0.70
2018-12-14T07:27:49.465Z,-0.70
2018-12-14T07:30:17.917Z,-0.60
2018-12-14T07:32:46.382Z,-0.70
2018-12-14T07:35:14.846Z,-0.60
2018-12-14T07:37:43.304Z,-0.70
2018-12-14T07:40:11.770Z,-0.70
2018-12-14T07:42:40.226Z,-0.70
2018-12-14T07:45:08.818Z,-0.70
2018-12-14T07:47:37.292Z,-0.70
2018-12-14T07:50:07.210Z,-0.70
2018-12-14T07:52:35.679Z,-0.70
2018-12-14T07:55:04.191Z,-0.60
2018-12-14T07:57:32.719Z,-0.60
2018-12-14T08:00:01.207Z,-0.70
2018-12-14T08:02:29.702Z,-0.70
2018-12-14T08:04:58.182Z,-0.70
2018-12-14T08:07:26.653Z,-0.60
2018-12-14T08:09:55.134Z,-0.60
2018-12-14T08:12:23.593Z,-0.60
2018-12-14T08:14:52.071Z,-0.60
2018-12-14T08:17:20.555Z,-0.60
2018-12-14T08:19:49.017Z,-0.60
2018-12-14T08:22:17.522Z,-0.70
2018-12-14T08:24:45.998Z,-0.70
2018-12-14T08:27:14.480Z,-0.70
2018-12-14T08:29:42.946Z,-0.70
2018-12-14T08:32:11.407Z,-0.50
2018-12-14T08:34:39.919Z,-0.60
2018-12-14T08:37:38.962Z,-0.50
2018-12-14T08:40:08.053Z,-0.50
2018-12-14T08:42:36.514Z,-0.60
2018-12-14T08:45:05.883Z,-0.50
2018-12-14T08:47:34.773Z,-0.50
2018-12-14T08:50:03.398Z,-0.50
2018-12-14T08:52:31.858Z,-0.50
2018-12-14T08:55:00.348Z,-0.50
2018-12-14T08:57:28.876Z,-0.50
2018-12-14T08:59:57.326Z,-0.50
2018-12-14T09:02:25.804Z,-0.50
2018-12-14T09:05:21.140Z,-0.50
2018-12-14T09:07:49.610Z,-0.50
2018-12-14T09:10:18.077Z,-0.40
2018-12-14T09:12:46.555Z,-0.40
2018-12-14T09:15:15.034Z,-0.40
2018-12-14T09:17:43.497Z,-0.40
2018-12-14T09:20:12.034Z,-0.40
2018-12-14T09:22:40.506Z,-0.40
2018-12-14T09:25:09.120Z,-0.40
2018-12-14T09:27:37.615Z,-0.30
2018-12-14T09:30:06.526Z,-0.30
2018-12-14T09:32:34.998Z,-0.20
2018-12-14T09:35:03.926Z,-0.30
2018-12-14T09:37:32.417Z,-0.30
2018-12-14T09:40:00.914Z,-0.30
2018-12-14T09:42:29.528Z,-0.30
2018-12-14T09:44:58.001Z,-0.20
2018-12-14T09:47:26.467Z,-0.30
2018-12-14T09:49:54.929Z,-0.30
2018-12-14T09:52:23.407Z,-0.20
2018-12-14T09:54:51.878Z,-0.30
2018-12-14T09:57:20.334Z,-0.30
2018-12-14T09:59:49.106Z,-0.30
2018-12-14T10:02:17.583Z,-0.30
2018-12-14T10:04:46.064Z,-0.30
2018-12-14T10:07:14.560Z,-0.20
2018-12-14T10:09:43.050Z,-0.20
2018-12-14T10:12:11.533Z,-0.20
2018-12-14T10:14:39.998Z,-0.10
2018-12-14T10:17:08.486Z,-0.20
2018-12-14T10:19:36.962Z,-0.30
2018-12-14T10:22:05.455Z,-0.30
2018-12-14T10:24:33.922Z,-0.30
2018-12-14T10:27:02.406Z,-0.30
2018-12-14T10:29:30.892Z,-0.30
2018-12-14T10:31:59.367Z,-0.40
2018-12-14T10:34:27.858Z,-0.40
2018-12-14T10:36:56.326Z,-0.40
2018-12-14T10:39:24.791Z,-0.40
2018-12-14T10:41:53.584Z,-0.40
2018-12-14T10:44:22.063Z,-0.50
2018-12-14T10:46:50.548Z,-0.40
2018-12-14T10:49:19.014Z,-0.40
2018-12-14T10:51:48.234Z,-0.40
2018-12-14T10:54:17.022Z,-0.40
2018-12-14T10:56:45.482Z,-0.40
2018-12-14T10:59:14.019Z,-0.50
2018-12-14T11:01:47.819Z,-0.40
2018-12-14T11:04:16.309Z,-0.40
2018-12-14T11:06:44.964Z,-0.40
2018-12-14T11:09:13.614Z,-0.50
2018-12-14T11:11:42.093Z,-0.40
2018-12-14T11:14:14.003Z,-0.40
2018-12-14T11:16:41.082Z,-0.50
2018-12-14T11:19:09.594Z,-0.50
2018-12-14T11:21:38.131Z,-0.50
2018-12-14T11:24:06.650Z,-0.50
2018-12-14T11:26:35.999Z,-0.40
2018-12-14T11:29:04.543Z,-0.40
2018-12-14T11:31:33.055Z,-0.50
2018-12-14T11:34:01.628Z,-0.60
2018-12-14T11:36:30.163Z,-0.50
2018-12-14T11:38:58.674Z,-0.60
2018-12-14T11:41:27.425Z,-0.60
2018-12-14T11:43:55.991Z,-0.60
2018-12-14T11:46:24.510Z,-0.60
2018-12-14T11:48:53.025Z,-0.50
2018-12-14T11:51:24.762Z,-0.60
2018-12-14T11:53:53.270Z,-0.60
2018-12-14T11:56:21.783Z,-0.60
2018-12-14T11:58:50.305Z,-0.60
2018-12-14T12:01:19.242Z,-0.50
2018-12-14T12:03:47.774Z,-0.40
2018-12-14T12:06:16.274Z,-0.40
2018-12-14T12:08:45.022Z,-0.20
2018-12-14T12:11:13.571Z,-0.30
2018-12-14T12:13:42.074Z,-0.20
2018-12-14T12:16:10.596Z,-0.20
2018-12-14T12:18:39.122Z,-0.20
2018-12-14T12:21:07.635Z,-0.20
2018-12-14T12:23:36.265Z,-0.20
2018-12-14T12:26:04.779Z,-0.20
2018-12-14T12:28:33.302Z,-0.20
2018-12-14T12:31:01.799Z,-0.30
2018-12-14T12:33:30.295Z,-0.20
2018-12-14T12:35:58.785Z,-0.30
2018-12-14T12:38:27.281Z,-0.30
2018-12-14T12:40:55.814Z,-0.30
2018-12-14T12:43:24.464Z,-0.30
2018-12-14T12:45:52.982Z,-0.40
2018-12-14T12:48:21.499Z,-0.40
2018-12-14T12:50:50.006Z,-0.50
2018-12-14T12:53:19.250Z,-0.40
2018-12-14T12:55:48.308Z,-0.50
2018-12-14T12:58:16.842Z,-0.40
2018-12-14T13:00:45.379Z,-0.50
2018-12-14T13:03:14.214Z,-0.50
2018-12-14T13:05:42.730Z,-0.40
2018-12-14T13:08:11.274Z,-0.40
2018-12-14T13:10:39.783Z,-0.40
2018-12-14T13:13:08.294Z,-0.40
2018-12-14T13:15:36.815Z,-0.50
2018-12-14T13:18:05.744Z,-0.50
2018-12-14T13:20:34.507Z,-0.50
2018-12-14T13:23:03.015Z,-0.40
2018-12-14T13:25:31.683Z,-0.50
2018-12-14T13:28:00.834Z,-0.40
2018-12-14T13:30:29.334Z,-0.30
2018-12-14T13:32:58.293Z,-0.50
2018-12-14T13:35:27.118Z,-0.50
2018-12-14T13:37:55.634Z,-0.50
2018-12-14T13:40:24.189Z,-0.50
2018-12-14T13:42:52.814Z,-0.50
2018-12-14T13:45:21.359Z,-0.60
2018-12-14T13:47:50.111Z,-0.60
2018-12-14T13:50:18.581Z,-0.70
2018-12-14T13:52:47.220Z,-0.70
2018-12-14T13:55:15.708Z,-0.90
2018-12-14T13:57:45.542Z,-0.80
2018-12-14T14:00:14.350Z,-0.80
2018-12-14T14:02:42.826Z,-0.80
2018-12-14T14:05:11.450Z,-0.80
2018-12-14T14:07:39.919Z,-0.80
2018-12-14T14:10:08.409Z,-0.70
2018-12-14T14:12:36.882Z,-0.80
2018-12-14T14:15:07.061Z,-0.80
2018-12-14T14:17:35.560Z,-0.80
2018-12-14T14:20:04.323Z,-0.70
2018-12-14T14:22:32.797Z,-0.80
2018-12-14T14:25:01.269Z,-0.80
2018-12-14T14:27:30.135Z,-0.80
2018-12-14T14:29:58.613Z,-0.80
2018-12-14T14:32:27.086Z,-0.80
2018-12-14T14:34:55.558Z,-0.80
2018-12-14T14:37:24.022Z,-0.80
2018-12-14T14:39:52.487Z,-0.80
2018-12-14T14:42:20.962Z,-0.80
2018-12-14T14:44:49.437Z,-0.80
2018-12-14T14:47:17.902Z,-0.80
2018-12-14T14:49:46.379Z,-0.80
2018-12-14T14:52:14.985Z,-0.80
2018-12-14T14:54:43.458Z,-0.80
2018-12-14T14:57:11.941Z,-0.80
2018-12-14T14:59:40.402Z,-0.80
2018-12-14T15:02:09.178Z,-0.80
2018-12-14T15:04:37.654Z,-0.90
2018-12-14T15:07:06.150Z,-0.80
2018-12-14T15:09:34.677Z,-0.80
2018-12-14T15:12:03.254Z,-0.80
2018-12-14T15:14:31.753Z,-0.90
2018-12-14T15:17:00.225Z,-0.90
2018-12-14T15:19:28.702Z,-0.90
2018-12-14T15:21:57.164Z,-0.80
2018-12-14T15:24:25.639Z,-0.90
2018-12-14T15:26:54.223Z,-0.90
2018-12-14T15:29:22.699Z,-0.90
2018-12-14T15:31:51.805Z,-0.90
2018-12-14T15:34:20.314Z,-0.90
2018-12-14T15:36:48.819Z,-0.90
2018-12-14T15:39:17.407Z,-0.90
2018-12-14T15:41:45.891Z,-0.80
2018-12-14T15:44:14.372Z,-0.80
2018-12-14T15:46:42.837Z,-0.80
2018-12-14T15:49:11.312Z,-0.80
2018-12-14T15:51:39.812Z,-0.90
2018-12-14T15:54:08.285Z,-0.90
2018-12-14T15:56:36.761Z,-0.90
2018-12-14T15:59:05.249Z,-1.00
2018-12-14T16:01:33.797Z,-1.00
2018-12-14T16:04:02.290Z,-1.10
2018-12-14T16:06:30.757Z,-1.10
2018-12-14T16:08:59.214Z,-1.20
2018-12-14T16:11:27.700Z,-1.20
2018-12-14T16:13:56.626Z,-1.30
2018-12-14T16:16:25.095Z,-1.30
2018-12-14T16:18:53.566Z,-1.40
2018-12-14T16:21:22.035Z,-1.50
2018-12-14T16:23:50.537Z,-1.50
2018-12-14T16:26:19.142Z,-1.60
2018-12-14T16:28:47.600Z,-1.70
2018-12-14T16:31:16.089Z,-1.70
2018-12-14T16:33:44.569Z,-1.80
2018-12-14T16:36:13.042Z,-1.80
2018-12-14T16:38:41.494Z,-1.80
2018-12-14T16:41:09.959Z,-1.80
2018-12-14T16:43:38.417Z,-1.90
2018-12-14T16:46:06.882Z,-1.90
2018-12-14T16:48:35.362Z,-1.90
2018-12-14T16:51:03.963Z,-1.90
2018-12-14T16:53:36.878Z,-1.90
2018-12-14T16:56:05.472Z,-2.00
2018-12-14T16:58:33.952Z,-2.00
2018-12-14T17:01:02.439Z,-2.00
2018-12-14T17:03:30.917Z,-2.10
2018-12-14T17:05:59.386Z,-2.20
2018-12-14T17:08:27.864Z,-2.20
2018-12-14T17:10:56.400Z,-2.30
2018-12-14T17:13:24.882Z,-2.40
2018-12-14T17:15:53.352Z,-2.40
2018-12-14T17:18:22.786Z,-2.40
2018-12-14T17:20:51.273Z,-2.50
2018-12-14T17:23:19.745Z,-2.60
2018-12-14T17:25:48.346Z,-2.50
2018-12-14T17:28:16.862Z,-2.60
2018-12-14T17:30:45.342Z,-2.60
2018-12-14T17:33:13.841Z,-2.60
2018-12-14T17:35:42.301Z,-2.60
2018-12-14T17:38:10.762Z,-2.70
2018-12-14T17:40:39.214Z,-2.70
2018-12-14T17:43:07.730Z,-2.70
2018-12-14T17:45:39.706Z,-2.80
2018-12-14T17:48:06.930Z,-2.70
2018-12-14T17:50:35.434Z,-2.70
2018-12-14T17:53:03.907Z,-2.70
2018-12-14T17:55:32.386Z,-2.70
2018-12-14T17:58:00.915Z,-2.80
2018-12-14T18:00:29.394Z,-2.70
2018-12-14T18:02:57.892Z,-2.60
2018-12-14T18:05:26.418Z,-2.70
2018-12-14T18:07:54.880Z,-2.70
2018-12-14T18:10:23.386Z,-2.60
2018-12-14T18:12:51.873Z,-2.60
2018-12-14T18:15:20.352Z,-2.60
2018-12-14T18:17:48.908Z,-2.50
2018-12-14T18:20:17.744Z,-2.50
2018-12-14T18:22:46.209Z,-2.60
2018-12-14T18:25:15.213Z,-2.50
2018-12-14T18:27:43.675Z,-2.50
2018-12-14T18:30:12.321Z,-2.50
2018-12-14T18:32:40.791Z,-2.60
2018-12-14T18:35:09.274Z,-2.60
2018-12-14T18:37:37.797Z,-2.60
2018-12-14T18:40:08.368Z,-2.70
2018-12-14T18:42:36.850Z,-2.80
2018-12-14T18:45:06.393Z,-2.80
2018-12-14T18:47:34.860Z,-2.70
2018-12-14T18:50:03.586Z,-2.90
2018-12-14T18:52:32.056Z,-2.90
2018-12-14T18:55:00.664Z,-2.90
2018-12-14T18:57:29.149Z,-3.00
2018-12-14T18:59:57.618Z,-3.10
2018-12-14T19:02:26.154Z,-3.10
2018-12-14T19:04:54.643Z,-3.10
2018-12-14T19:07:23.121Z,-3.10
2018-12-14T19:09:51.602Z,-3.20
2018-12-14T19:12:20.817Z,-3.30
2018-12-14T19:14:49.945Z,-3.40
2018-12-14T19:17:18.431Z,-3.30
2018-12-14T19:19:46.898Z,-3.30
2018-12-14T19:22:15.370Z,-3.30
2018-12-14T19:24:43.852Z,-3.40
2018-12-14T19:27:12.323Z,-3.40
2018-12-14T19:29:40.955Z,-3.40
2018-12-14T19:32:09.439Z,-3.40
2018-12-14T19:34:37.917Z,-3.40
2018-12-14T19:37:06.426Z,-3.40
2018-12-14T19:39:34.882Z,-3.30
2018-12-14T19:42:03.363Z,-3.30
2018-12-14T19:44:32.062Z,-3.30
2018-12-14T19:47:00.553Z,-3.20
2018-12-14T19:49:29.863Z,-3.20
2018-12-14T19:51:58.562Z,-3.20
2018-12-14T19:54:27.963Z,-3.20
2018-12-14T19:56:56.575Z,-3.20
2018-12-14T19:59:25.052Z,-3.20
2018-12-14T20:01:53.534Z,-3.20
2018-12-14T20:04:22.014Z,-3.20
2018-12-14T20:06:50.506Z,-3.20
2018-12-14T20:09:19.015Z,-3.20
2018-12-14T20:11:47.765Z,-3.20
2018-12-14T20:14:16.242Z,-3.20
2018-12-14T20:16:44.713Z,-3.20
2018-12-14T20:19:13.222Z,-3.30
2018-12-14T20:21:41.686Z,-3.20
2018-12-14T20:24:10.181Z,-3.10
2018-12-14T20:26:38.663Z,-3.20
2018-12-14T20:29:07.138Z,-3.20
2018-12-14T20:31:35.602Z,-3.30
2018-12-14T20:34:04.089Z,-3.20
2018-12-14T20:36:32.577Z,-3.20
2018-12-14T20:39:01.050Z,-3.30
2018-12-14T20:41:29.532Z,-3.30
2018-12-14T20:43:57.994Z,-3.30
2018-12-14T20:46:26.465Z,-3.30
2018-12-14T20:48:54.918Z,-3.30
2018-12-14T20:51:23.391Z,-3.40
2018-12-14T20:53:51.862Z,-3.30
2018-12-14T20:56:20.318Z,-3.30
2018-12-14T20:58:48.774Z,-3.40
2018-12-14T21:01:17.225Z,-3.30
2018-12-14T21:03:45.690Z,-3.30
2018-12-14T21:06:14.178Z,-3.20
2018-12-14T21:08:42.637Z,-3.30
2018-12-14T21:11:11.116Z,-3.20
2018-12-14T21:13:39.586Z,-3.20
2018-12-14T21:16:08.147Z,-3.20
2018-12-14T21:18:36.745Z,-3.20
2018-12-14T21:21:05.219Z,-3.10
2018-12-14T21:23:33.697Z,-3.20
2018-12-14T21:26:02.165Z,-3.20
2018-12-14T21:28:30.628Z,-3.10
2018-12-14T21:30:59.205Z,-3.10
2018-12-14T21:33:27.657Z,-3.10
2018-12-14T21:35:56.127Z,-3.10
2018-12-14T21:38:24.645Z,-3.10
2018-12-14T21:40:53.102Z,-3.00
2018-12-14T21:43:21.577Z,-2.90
2018-12-14T21:45:50.038Z,-2.80
2018-12-14T21:48:18.561Z,-2.90
2018-12-14T21:50:47.199Z,-3.00
2018-12-14T21:53:15.673Z,-2.90
2018-12-14T21:55:44.156Z,-3.00
2018-12-14T21:58:12.941Z,-3.00
2018-12-14T22:00:41.638Z,-3.00
2018-12-14T22:03:10.106Z,-3.00
2018-12-14T22:05:38.563Z,-3.10
2018-12-14T22:08:07.035Z,-3.00
2018-12-14T22:10:35.499Z,-2.90
2018-12-14T22:13:03.958Z,-3.00
2018-12-14T22:15:32.445Z,-3.00
2018-12-14T22:18:00.914Z,-2.90
2018-12-14T22:20:29.388Z,-2.80
2018-12-14T22:22:57.849Z,-2.80
2018-12-14T22:25:26.321Z,-2.80
2018-12-14T22:27:54.781Z,-2.70
2018-12-14T22:30:23.249Z,-2.70
2018-12-14T22:32:51.742Z,-2.70
2018-12-14T22:35:20.206Z,-2.60
2018-12-14T22:37:48.670Z,-2.70
2018-12-14T22:40:17.137Z,-2.60
2018-12-14T22:42:45.642Z,-2.60
2018-12-14T22:45:14.122Z,-2.60
2018-12-14T22:47:42.594Z,-2.60
2018-12-14T22:50:11.078Z,-2.60
2018-12-14T22:52:39.544Z,-2.60
2018-12-14T22:55:08.058Z,-2.60
2018-12-14T22:57:36.549Z,-2.60
2018-12-14T23:00:09.610Z,-2.60
2018-12-14T23:02:38.082Z,-2.50
2018-12-14T23:05:06.573Z,-2.50
2018-12-14T23:07:35.053Z,-2.50
2018-12-14T23:10:03.889Z,-2.50
2018-12-14T23:12:32.357Z,-2.50
2018-12-14T23:15:00.851Z,-2.40
2018-12-14T23:17:29.321Z,-2.40
2018-12-14T23:19:57.818Z,-2.40
2018-12-14T23:22:26.287Z,-2.40
2018-12-14T23:24:54.886Z,-2.40
2018-12-14T23:27:23.352Z,-2.40
2018-12-14T23:29:51.810Z,-2.30
2018-12-14T23:32:20.269Z,-2.30
2018-12-14T23:34:48.734Z,-2.30
2018-12-14T23:37:17.201Z,-2.40
2018-12-14T23:39:45.651Z,-2.30
2018-12-14T23:42:14.138Z,-2.30
2018-12-14T23:44:42.602Z,-2.30
2018-12-14T23:47:11.066Z,-2.30
2018-12-14T23:49:39.525Z,-2.30
2018-12-14T23:52:07.982Z,-2.30
2018-12-14T23:54:36.439Z,-2.20
2018-12-14T23:57:04.911Z,-2.20
2018-12-14T23:59:33.401Z,-2.10
